sensor_id;sensor_type;location;lat;lon;timestamp;temperature;humidity
40952;DHT22;26682;51.660;19.338;2023-01-26T00:00:07;0.60;1.00
40952;DHT22;26682;51.660;19.338;2023-01-26T00:02:15;0.60;1.00
40952;DHT22;26682;51.660;19.338;2023-01-26T00:04:03;0.60;1.00
40952;DHT22;26682;51.660;19.338;2023-01-26T00:05:50;0.50;1.00
40952;DHT22;26682;51.660;19.338;2023-01-26T00:07:37;0.50;1.30
40952;DHT22;26682;51.660;19.338;2023-01-26T00:09:28;0.50;2.30
40952;DHT22;26682;51.660;19.338;2023-01-26T00:11:18;0.50;1.90
40952;DHT22;26682;51.660;19.338;2023-01-26T00:13:06;0.50;12.90
40952;DHT22;26682;51.660;19.338;2023-01-26T00:14:54;0.50;11.20
40952;DHT22;26682;51.660;19.338;2023-01-26T00:16:42;0.50;14.00
40952;DHT22;26682;51.660;19.338;2023-01-26T00:18:30;0.60;16.30
40952;DHT22;26682;51.660;19.338;2023-01-26T00:20:18;0.60;16.50
40952;DHT22;26682;51.660;19.338;2023-01-26T00:22:06;0.60;16.90
40952;DHT22;26682;51.660;19.338;2023-01-26T00:23:53;0.60;25.30
40952;DHT22;26682;51.660;19.338;2023-01-26T00:25:40;0.60;19.30
40952;DHT22;26682;51.660;19.338;2023-01-26T00:27:27;0.60;19.70
40952;DHT22;26682;51.660;19.338;2023-01-26T00:29:15;0.60;25.30
40952;DHT22;26682;51.660;19.338;2023-01-26T00:31:07;0.60;24.80
40952;DHT22;26682;51.660;19.338;2023-01-26T00:32:55;0.60;19.90
40952;DHT22;26682;51.660;19.338;2023-01-26T00:34:43;0.50;16.00
40952;DHT22;26682;51.660;19.338;2023-01-26T00:36:31;0.60;20.60
40952;DHT22;26682;51.660;19.338;2023-01-26T00:38:18;0.50;19.70
40952;DHT22;26682;51.660;19.338;2023-01-26T00:40:06;0.60;23.20
40952;DHT22;26682;51.660;19.338;2023-01-26T00:41:53;0.60;28.30
40952;DHT22;26682;51.660;19.338;2023-01-26T00:43:54;0.60;32.00
40952;DHT22;26682;51.660;19.338;2023-01-26T00:45:42;0.60;24.30
40952;DHT22;26682;51.660;19.338;2023-01-26T00:47:29;0.60;28.20
40952;DHT22;26682;51.660;19.338;2023-01-26T00:49:17;0.60;24.80
40952;DHT22;26682;51.660;19.338;2023-01-26T00:51:04;0.60;20.60
40952;DHT22;26682;51.660;19.338;2023-01-26T00:52:51;0.60;24.40
40952;DHT22;26682;51.660;19.338;2023-01-26T00:54:43;0.60;24.80
40952;DHT22;26682;51.660;19.338;2023-01-26T00:56:33;0.60;32.70
40952;DHT22;26682;51.660;19.338;2023-01-26T00:58:21;0.60;33.30
40952;DHT22;26682;51.660;19.338;2023-01-26T01:00:09;0.60;24.30
40952;DHT22;26682;51.660;19.338;2023-01-26T01:01:59;0.60;22.10
40952;DHT22;26682;51.660;19.338;2023-01-26T01:03:50;0.60;25.90
40952;DHT22;26682;51.660;19.338;2023-01-26T01:05:37;0.60;34.60
40952;DHT22;26682;51.660;19.338;2023-01-26T01:07:25;0.60;39.50
40952;DHT22;26682;51.660;19.338;2023-01-26T01:09:12;0.60;27.70
40952;DHT22;26682;51.660;19.338;2023-01-26T01:11:08;0.60;32.50
40952;DHT22;26682;51.660;19.338;2023-01-26T01:12:55;0.60;29.60
40952;DHT22;26682;51.660;19.338;2023-01-26T01:14:43;0.60;33.40
40952;DHT22;26682;51.660;19.338;2023-01-26T01:16:30;0.60;32.40
40952;DHT22;26682;51.660;19.338;2023-01-26T01:18:17;0.60;32.80
40952;DHT22;26682;51.660;19.338;2023-01-26T01:20:08;0.60;33.20
40952;DHT22;26682;51.660;19.338;2023-01-26T01:21:56;0.60;44.10
40952;DHT22;26682;51.660;19.338;2023-01-26T01:23:43;0.70;49.90
40952;DHT22;26682;51.660;19.338;2023-01-26T01:25:31;0.70;43.80
40952;DHT22;26682;51.660;19.338;2023-01-26T01:27:20;0.70;44.30
40952;DHT22;26682;51.660;19.338;2023-01-26T01:29:11;0.70;38.50
40952;DHT22;26682;51.660;19.338;2023-01-26T01:31:02;0.70;31.30
40952;DHT22;26682;51.660;19.338;2023-01-26T01:32:50;0.70;33.50
40952;DHT22;26682;51.660;19.338;2023-01-26T01:34:38;0.70;43.40
40952;DHT22;26682;51.660;19.338;2023-01-26T01:36:26;0.70;45.40
40952;DHT22;26682;51.660;19.338;2023-01-26T01:38:15;0.70;37.50
40952;DHT22;26682;51.660;19.338;2023-01-26T01:40:03;0.60;41.80
40952;DHT22;26682;51.660;19.338;2023-01-26T01:41:51;0.70;43.60
40952;DHT22;26682;51.660;19.338;2023-01-26T01:43:38;0.70;52.10
40952;DHT22;26682;51.660;19.338;2023-01-26T01:47:21;0.70;55.90
40952;DHT22;26682;51.660;19.338;2023-01-26T01:49:16;0.70;56.00
40952;DHT22;26682;51.660;19.338;2023-01-26T01:51:12;0.70;59.10
40952;DHT22;26682;51.660;19.338;2023-01-26T01:53:02;0.70;59.20
40952;DHT22;26682;51.660;19.338;2023-01-26T01:54:57;0.70;58.90
40952;DHT22;26682;51.660;19.338;2023-01-26T01:56:51;0.70;64.40
40952;DHT22;26682;51.660;19.338;2023-01-26T01:58:42;0.70;66.50
40952;DHT22;26682;51.660;19.338;2023-01-26T02:00:29;0.70;69.80
40952;DHT22;26682;51.660;19.338;2023-01-26T02:02:17;0.70;67.40
40952;DHT22;26682;51.660;19.338;2023-01-26T02:04:06;0.70;78.80
40952;DHT22;26682;51.660;19.338;2023-01-26T02:06:05;0.70;78.70
40952;DHT22;26682;51.660;19.338;2023-01-26T02:07:55;0.70;83.70
40952;DHT22;26682;51.660;19.338;2023-01-26T02:09:42;0.70;90.70
40952;DHT22;26682;51.660;19.338;2023-01-26T02:11:49;0.70;93.20
40952;DHT22;26682;51.660;19.338;2023-01-26T02:13:37;0.70;95.00
40952;DHT22;26682;51.660;19.338;2023-01-26T02:15:25;0.70;99.00
40952;DHT22;26682;51.660;19.338;2023-01-26T02:17:13;0.70;99.90
40952;DHT22;26682;51.660;19.338;2023-01-26T02:19:00;0.70;99.90
40952;DHT22;26682;51.660;19.338;2023-01-26T02:20:52;0.70;99.90
40952;DHT22;26682;51.660;19.338;2023-01-26T02:24:50;0.70;99.90
40952;DHT22;26682;51.660;19.338;2023-01-26T02:26:38;0.70;99.90
40952;DHT22;26682;51.660;19.338;2023-01-26T02:28:26;0.70;99.90
40952;DHT22;26682;51.660;19.338;2023-01-26T02:30:14;0.70;99.90
40952;DHT22;26682;51.660;19.338;2023-01-26T02:32:03;0.60;99.90
40952;DHT22;26682;51.660;19.338;2023-01-26T02:33:51;0.70;99.90
40952;DHT22;26682;51.660;19.338;2023-01-26T02:35:40;0.70;99.90
40952;DHT22;26682;51.660;19.338;2023-01-26T02:37:27;0.70;99.90
40952;DHT22;26682;51.660;19.338;2023-01-26T02:41:38;0.70;99.90
40952;DHT22;26682;51.660;19.338;2023-01-26T02:43:44;0.70;99.90
40952;DHT22;26682;51.660;19.338;2023-01-26T02:45:33;0.70;99.90
40952;DHT22;26682;51.660;19.338;2023-01-26T02:47:20;0.70;99.90
40952;DHT22;26682;51.660;19.338;2023-01-26T02:49:08;0.70;99.90
40952;DHT22;26682;51.660;19.338;2023-01-26T02:51:14;0.60;99.90
40952;DHT22;26682;51.660;19.338;2023-01-26T02:53:03;0.60;99.90
40952;DHT22;26682;51.660;19.338;2023-01-26T02:54:51;0.60;99.90
40952;DHT22;26682;51.660;19.338;2023-01-26T02:56:57;0.60;99.90
40952;DHT22;26682;51.660;19.338;2023-01-26T02:58:44;0.60;99.90
40952;DHT22;26682;51.660;19.338;2023-01-26T03:00:34;0.60;99.90
40952;DHT22;26682;51.660;19.338;2023-01-26T03:02:30;0.60;99.90
40952;DHT22;26682;51.660;19.338;2023-01-26T03:04:17;0.60;99.90
40952;DHT22;26682;51.660;19.338;2023-01-26T03:06:05;0.60;99.90
40952;DHT22;26682;51.660;19.338;2023-01-26T03:07:52;0.60;99.90
40952;DHT22;26682;51.660;19.338;2023-01-26T03:09:43;0.60;99.90
40952;DHT22;26682;51.660;19.338;2023-01-26T03:11:30;0.60;99.90
40952;DHT22;26682;51.660;19.338;2023-01-26T03:13:28;0.70;99.90
40952;DHT22;26682;51.660;19.338;2023-01-26T03:15:18;0.70;99.90
40952;DHT22;26682;51.660;19.338;2023-01-26T03:17:24;0.70;99.90
40952;DHT22;26682;51.660;19.338;2023-01-26T03:19:13;0.70;99.90
40952;DHT22;26682;51.660;19.338;2023-01-26T03:21:24;0.70;99.90
40952;DHT22;26682;51.660;19.338;2023-01-26T03:23:32;0.70;99.90
40952;DHT22;26682;51.660;19.338;2023-01-26T03:25:40;0.70;99.90
40952;DHT22;26682;51.660;19.338;2023-01-26T03:27:48;0.70;99.90
40952;DHT22;26682;51.660;19.338;2023-01-26T03:29:38;0.70;99.90
40952;DHT22;26682;51.660;19.338;2023-01-26T03:31:25;0.70;99.90
40952;DHT22;26682;51.660;19.338;2023-01-26T03:33:13;0.70;99.90
40952;DHT22;26682;51.660;19.338;2023-01-26T03:35:00;0.60;99.90
40952;DHT22;26682;51.660;19.338;2023-01-26T03:36:48;0.70;99.90
40952;DHT22;26682;51.660;19.338;2023-01-26T03:38:38;0.70;99.90
40952;DHT22;26682;51.660;19.338;2023-01-26T03:40:25;0.70;99.90
40952;DHT22;26682;51.660;19.338;2023-01-26T03:42:31;0.70;99.90
40952;DHT22;26682;51.660;19.338;2023-01-26T03:44:37;0.70;99.90
40952;DHT22;26682;51.660;19.338;2023-01-26T03:46:43;0.70;99.90
40952;DHT22;26682;51.660;19.338;2023-01-26T03:48:49;0.70;99.90
40952;DHT22;26682;51.660;19.338;2023-01-26T03:50:55;0.70;99.90
40952;DHT22;26682;51.660;19.338;2023-01-26T03:53:01;0.70;99.90
40952;DHT22;26682;51.660;19.338;2023-01-26T03:55:08;0.70;99.90
40952;DHT22;26682;51.660;19.338;2023-01-26T03:57:14;0.70;99.90
40952;DHT22;26682;51.660;19.338;2023-01-26T03:59:04;0.70;99.90
40952;DHT22;26682;51.660;19.338;2023-01-26T04:00:56;0.60;99.90
40952;DHT22;26682;51.660;19.338;2023-01-26T04:02:44;0.70;99.90
40952;DHT22;26682;51.660;19.338;2023-01-26T04:04:51;0.60;99.90
40952;DHT22;26682;51.660;19.338;2023-01-26T04:06:58;0.70;99.90
40952;DHT22;26682;51.660;19.338;2023-01-26T04:09:08;0.60;99.90
40952;DHT22;26682;51.660;19.338;2023-01-26T04:10:56;0.60;99.90
40952;DHT22;26682;51.660;19.338;2023-01-26T04:12:45;0.60;99.90
40952;DHT22;26682;51.660;19.338;2023-01-26T04:14:51;0.70;99.90
40952;DHT22;26682;51.660;19.338;2023-01-26T04:16:58;0.70;99.90
40952;DHT22;26682;51.660;19.338;2023-01-26T04:19:06;0.60;99.90
40952;DHT22;26682;51.660;19.338;2023-01-26T04:21:12;0.60;99.90
40952;DHT22;26682;51.660;19.338;2023-01-26T04:23:31;0.60;99.90
40952;DHT22;26682;51.660;19.338;2023-01-26T04:25:20;0.60;99.90
40952;DHT22;26682;51.660;19.338;2023-01-26T04:27:07;0.60;99.90
40952;DHT22;26682;51.660;19.338;2023-01-26T04:28:57;0.60;99.90
40952;DHT22;26682;51.660;19.338;2023-01-26T04:30:44;0.60;99.90
40952;DHT22;26682;51.660;19.338;2023-01-26T04:32:32;0.60;99.90
40952;DHT22;26682;51.660;19.338;2023-01-26T04:34:19;0.60;99.90
40952;DHT22;26682;51.660;19.338;2023-01-26T04:36:09;0.60;99.90
40952;DHT22;26682;51.660;19.338;2023-01-26T04:38:00;0.60;99.90
40952;DHT22;26682;51.660;19.338;2023-01-26T04:39:47;0.60;99.90
40952;DHT22;26682;51.660;19.338;2023-01-26T04:41:36;0.60;99.90
40952;DHT22;26682;51.660;19.338;2023-01-26T04:43:27;0.60;99.90
40952;DHT22;26682;51.660;19.338;2023-01-26T04:45:14;0.60;99.90
40952;DHT22;26682;51.660;19.338;2023-01-26T04:47:03;0.60;99.90
40952;DHT22;26682;51.660;19.338;2023-01-26T04:48:52;0.60;99.90
40952;DHT22;26682;51.660;19.338;2023-01-26T04:50:39;0.60;99.90
40952;DHT22;26682;51.660;19.338;2023-01-26T04:52:27;0.60;99.90
40952;DHT22;26682;51.660;19.338;2023-01-26T04:54:15;0.60;99.90
40952;DHT22;26682;51.660;19.338;2023-01-26T04:56:03;0.60;99.90
40952;DHT22;26682;51.660;19.338;2023-01-26T04:57:52;0.60;99.90
40952;DHT22;26682;51.660;19.338;2023-01-26T04:59:39;0.60;99.90
40952;DHT22;26682;51.660;19.338;2023-01-26T05:01:26;0.60;99.90
40952;DHT22;26682;51.660;19.338;2023-01-26T05:03:14;0.60;99.90
40952;DHT22;26682;51.660;19.338;2023-01-26T05:05:02;0.60;99.90
40952;DHT22;26682;51.660;19.338;2023-01-26T05:06:50;0.60;99.90
40952;DHT22;26682;51.660;19.338;2023-01-26T05:08:38;0.60;99.90
40952;DHT22;26682;51.660;19.338;2023-01-26T05:10:27;0.50;99.90
40952;DHT22;26682;51.660;19.338;2023-01-26T05:12:34;0.50;99.90
40952;DHT22;26682;51.660;19.338;2023-01-26T05:14:42;0.50;99.90
40952;DHT22;26682;51.660;19.338;2023-01-26T05:16:59;0.60;99.90
40952;DHT22;26682;51.660;19.338;2023-01-26T05:19:17;0.60;99.90
40952;DHT22;26682;51.660;19.338;2023-01-26T05:21:25;0.60;99.90
40952;DHT22;26682;51.660;19.338;2023-01-26T05:23:13;0.60;99.90
40952;DHT22;26682;51.660;19.338;2023-01-26T05:25:21;0.60;99.90
40952;DHT22;26682;51.660;19.338;2023-01-26T05:27:22;0.50;99.90
40952;DHT22;26682;51.660;19.338;2023-01-26T05:29:18;0.50;99.90
40952;DHT22;26682;51.660;19.338;2023-01-26T05:31:05;0.60;99.90
40952;DHT22;26682;51.660;19.338;2023-01-26T05:32:53;0.60;99.90
40952;DHT22;26682;51.660;19.338;2023-01-26T05:34:40;0.60;99.90
40952;DHT22;26682;51.660;19.338;2023-01-26T05:36:28;0.60;99.90
40952;DHT22;26682;51.660;19.338;2023-01-26T05:38:17;0.60;99.90
40952;DHT22;26682;51.660;19.338;2023-01-26T05:40:04;0.60;99.90
40952;DHT22;26682;51.660;19.338;2023-01-26T05:41:52;0.60;99.90
40952;DHT22;26682;51.660;19.338;2023-01-26T05:44:01;0.60;99.90
40952;DHT22;26682;51.660;19.338;2023-01-26T05:45:59;0.60;99.90
40952;DHT22;26682;51.660;19.338;2023-01-26T05:47:47;0.60;99.90
40952;DHT22;26682;51.660;19.338;2023-01-26T05:49:38;0.60;96.80
40952;DHT22;26682;51.660;19.338;2023-01-26T05:51:34;0.60;93.20
40952;DHT22;26682;51.660;19.338;2023-01-26T05:53:23;0.60;83.30
40952;DHT22;26682;51.660;19.338;2023-01-26T05:55:11;0.60;72.70
40952;DHT22;26682;51.660;19.338;2023-01-26T05:56:58;0.60;53.00
40952;DHT22;26682;51.660;19.338;2023-01-26T05:58:47;0.60;48.80
40952;DHT22;26682;51.660;19.338;2023-01-26T06:00:34;0.60;31.90
40952;DHT22;26682;51.660;19.338;2023-01-26T06:02:27;0.60;15.30
40952;DHT22;26682;51.660;19.338;2023-01-26T06:04:15;0.60;13.50
40952;DHT22;26682;51.660;19.338;2023-01-26T06:06:09;0.60;9.10
40952;DHT22;26682;51.660;19.338;2023-01-26T06:08:06;0.60;6.90
40952;DHT22;26682;51.660;19.338;2023-01-26T06:10:08;0.60;5.90
40952;DHT22;26682;51.660;19.338;2023-01-26T06:12:13;0.60;2.40
40952;DHT22;26682;51.660;19.338;2023-01-26T06:14:17;0.60;1.00
40952;DHT22;26682;51.660;19.338;2023-01-26T06:16:05;0.60;1.00
40952;DHT22;26682;51.660;19.338;2023-01-26T06:17:54;0.60;1.00
40952;DHT22;26682;51.660;19.338;2023-01-26T06:19:42;0.60;1.00
40952;DHT22;26682;51.660;19.338;2023-01-26T06:21:30;0.60;1.00
40952;DHT22;26682;51.660;19.338;2023-01-26T06:23:18;0.60;1.00
40952;DHT22;26682;51.660;19.338;2023-01-26T06:25:07;0.60;1.00
40952;DHT22;26682;51.660;19.338;2023-01-26T06:26:54;0.70;1.00
40952;DHT22;26682;51.660;19.338;2023-01-26T06:28:42;0.70;1.00
40952;DHT22;26682;51.660;19.338;2023-01-26T06:30:30;0.70;1.00
40952;DHT22;26682;51.660;19.338;2023-01-26T06:32:21;0.70;1.00
40952;DHT22;26682;51.660;19.338;2023-01-26T06:34:13;0.60;1.00
40952;DHT22;26682;51.660;19.338;2023-01-26T06:36:06;0.60;1.00
40952;DHT22;26682;51.660;19.338;2023-01-26T06:37:54;0.60;1.00
40952;DHT22;26682;51.660;19.338;2023-01-26T06:39:42;0.60;1.00
40952;DHT22;26682;51.660;19.338;2023-01-26T06:41:31;0.60;1.00
40952;DHT22;26682;51.660;19.338;2023-01-26T06:43:19;0.60;1.00
40952;DHT22;26682;51.660;19.338;2023-01-26T06:45:07;0.60;1.00
40952;DHT22;26682;51.660;19.338;2023-01-26T06:46:55;0.60;1.00
40952;DHT22;26682;51.660;19.338;2023-01-26T06:48:42;0.60;1.00
40952;DHT22;26682;51.660;19.338;2023-01-26T06:50:32;0.60;1.00
40952;DHT22;26682;51.660;19.338;2023-01-26T06:52:26;0.60;1.00
40952;DHT22;26682;51.660;19.338;2023-01-26T06:54:19;0.60;1.00
40952;DHT22;26682;51.660;19.338;2023-01-26T06:56:30;0.60;1.00
40952;DHT22;26682;51.660;19.338;2023-01-26T06:58:36;0.60;1.00
40952;DHT22;26682;51.660;19.338;2023-01-26T07:00:26;0.60;1.00
40952;DHT22;26682;51.660;19.338;2023-01-26T07:02:24;0.60;1.00
40952;DHT22;26682;51.660;19.338;2023-01-26T07:04:11;0.60;1.00
40952;DHT22;26682;51.660;19.338;2023-01-26T07:05:59;0.60;1.00
40952;DHT22;26682;51.660;19.338;2023-01-26T07:07:46;0.60;1.00
40952;DHT22;26682;51.660;19.338;2023-01-26T07:09:34;0.60;1.00
40952;DHT22;26682;51.660;19.338;2023-01-26T07:11:21;0.60;1.00
40952;DHT22;26682;51.660;19.338;2023-01-26T07:13:08;0.60;1.00
40952;DHT22;26682;51.660;19.338;2023-01-26T07:14:56;0.60;1.00
40952;DHT22;26682;51.660;19.338;2023-01-26T07:16:43;0.60;1.00
40952;DHT22;26682;51.660;19.338;2023-01-26T07:18:31;0.60;1.00
40952;DHT22;26682;51.660;19.338;2023-01-26T07:20:19;0.60;1.00
40952;DHT22;26682;51.660;19.338;2023-01-26T07:22:06;0.60;1.00
40952;DHT22;26682;51.660;19.338;2023-01-26T07:23:54;0.70;1.00
40952;DHT22;26682;51.660;19.338;2023-01-26T07:25:42;0.70;1.00
40952;DHT22;26682;51.660;19.338;2023-01-26T07:27:30;0.70;1.00
40952;DHT22;26682;51.660;19.338;2023-01-26T07:29:18;0.70;1.00
40952;DHT22;26682;51.660;19.338;2023-01-26T07:31:06;0.70;1.00
40952;DHT22;26682;51.660;19.338;2023-01-26T07:32:54;0.70;1.00
40952;DHT22;26682;51.660;19.338;2023-01-26T07:34:45;0.60;1.00
40952;DHT22;26682;51.660;19.338;2023-01-26T07:36:32;0.60;1.00
40952;DHT22;26682;51.660;19.338;2023-01-26T07:38:21;0.70;1.00
40952;DHT22;26682;51.660;19.338;2023-01-26T07:40:09;0.70;1.00
40952;DHT22;26682;51.660;19.338;2023-01-26T07:41:57;0.70;1.00
40952;DHT22;26682;51.660;19.338;2023-01-26T07:44:10;0.60;99.90
40952;DHT22;26682;51.660;19.338;2023-01-26T07:45:58;0.60;99.90
40952;DHT22;26682;51.660;19.338;2023-01-26T07:47:45;0.70;99.90
40952;DHT22;26682;51.660;19.338;2023-01-26T07:49:34;0.70;99.90
40952;DHT22;26682;51.660;19.338;2023-01-26T07:51:21;0.70;99.90
40952;DHT22;26682;51.660;19.338;2023-01-26T07:53:09;0.70;99.90
40952;DHT22;26682;51.660;19.338;2023-01-26T07:54:59;0.70;99.90
40952;DHT22;26682;51.660;19.338;2023-01-26T07:56:50;0.70;99.90
40952;DHT22;26682;51.660;19.338;2023-01-26T07:58:38;0.70;99.90
40952;DHT22;26682;51.660;19.338;2023-01-26T08:00:26;0.70;99.90
40952;DHT22;26682;51.660;19.338;2023-01-26T08:02:13;0.70;99.90
40952;DHT22;26682;51.660;19.338;2023-01-26T08:04:00;0.70;99.90
40952;DHT22;26682;51.660;19.338;2023-01-26T08:05:51;0.70;99.90
40952;DHT22;26682;51.660;19.338;2023-01-26T08:07:39;0.70;99.90
40952;DHT22;26682;51.660;19.338;2023-01-26T08:09:26;0.70;99.90
40952;DHT22;26682;51.660;19.338;2023-01-26T08:11:14;0.70;99.90
40952;DHT22;26682;51.660;19.338;2023-01-26T08:13:01;0.70;99.90
40952;DHT22;26682;51.660;19.338;2023-01-26T08:14:48;0.70;99.90
40952;DHT22;26682;51.660;19.338;2023-01-26T08:16:36;0.70;99.90
40952;DHT22;26682;51.660;19.338;2023-01-26T08:18:23;0.70;99.90
40952;DHT22;26682;51.660;19.338;2023-01-26T08:20:11;0.70;99.90
40952;DHT22;26682;51.660;19.338;2023-01-26T08:22:00;0.70;99.90
40952;DHT22;26682;51.660;19.338;2023-01-26T08:23:51;0.70;99.90
40952;DHT22;26682;51.660;19.338;2023-01-26T08:25:38;0.80;99.90
40952;DHT22;26682;51.660;19.338;2023-01-26T08:27:26;0.80;99.90
40952;DHT22;26682;51.660;19.338;2023-01-26T08:29:14;0.80;99.90
40952;DHT22;26682;51.660;19.338;2023-01-26T08:31:14;0.80;99.90
40952;DHT22;26682;51.660;19.338;2023-01-26T08:33:04;0.80;99.90
40952;DHT22;26682;51.660;19.338;2023-01-26T08:34:52;0.80;99.90
40952;DHT22;26682;51.660;19.338;2023-01-26T08:36:40;0.80;99.90
40952;DHT22;26682;51.660;19.338;2023-01-26T08:38:29;0.90;99.90
40952;DHT22;26682;51.660;19.338;2023-01-26T08:40:17;1.00;99.90
40952;DHT22;26682;51.660;19.338;2023-01-26T08:42:05;1.00;99.90
40952;DHT22;26682;51.660;19.338;2023-01-26T08:43:52;1.00;99.90
40952;DHT22;26682;51.660;19.338;2023-01-26T08:45:40;0.90;99.90
40952;DHT22;26682;51.660;19.338;2023-01-26T08:47:27;0.90;99.90
40952;DHT22;26682;51.660;19.338;2023-01-26T08:49:15;0.90;99.90
40952;DHT22;26682;51.660;19.338;2023-01-26T08:51:03;0.90;99.90
40952;DHT22;26682;51.660;19.338;2023-01-26T08:52:54;0.90;99.90
40952;DHT22;26682;51.660;19.338;2023-01-26T08:54:42;0.90;99.90
40952;DHT22;26682;51.660;19.338;2023-01-26T08:56:30;1.00;99.90
40952;DHT22;26682;51.660;19.338;2023-01-26T08:58:18;1.00;99.90
40952;DHT22;26682;51.660;19.338;2023-01-26T09:00:07;0.90;99.90
40952;DHT22;26682;51.660;19.338;2023-01-26T09:02:01;0.90;99.90
40952;DHT22;26682;51.660;19.338;2023-01-26T09:03:48;0.90;99.90
40952;DHT22;26682;51.660;19.338;2023-01-26T09:05:39;0.90;99.90
40952;DHT22;26682;51.660;19.338;2023-01-26T09:07:26;0.90;99.90
40952;DHT22;26682;51.660;19.338;2023-01-26T09:09:14;1.00;99.90
40952;DHT22;26682;51.660;19.338;2023-01-26T09:11:04;1.00;99.90
40952;DHT22;26682;51.660;19.338;2023-01-26T09:12:52;0.90;99.90
40952;DHT22;26682;51.660;19.338;2023-01-26T09:14:39;0.90;99.90
40952;DHT22;26682;51.660;19.338;2023-01-26T09:16:27;0.90;99.90
40952;DHT22;26682;51.660;19.338;2023-01-26T09:18:15;0.90;99.90
40952;DHT22;26682;51.660;19.338;2023-01-26T09:20:05;0.90;99.90
40952;DHT22;26682;51.660;19.338;2023-01-26T09:21:54;0.90;99.90
40952;DHT22;26682;51.660;19.338;2023-01-26T09:23:42;0.90;99.90
40952;DHT22;26682;51.660;19.338;2023-01-26T09:25:29;0.90;99.90
40952;DHT22;26682;51.660;19.338;2023-01-26T09:27:17;0.80;99.90
40952;DHT22;26682;51.660;19.338;2023-01-26T09:29:05;0.90;99.90
40952;DHT22;26682;51.660;19.338;2023-01-26T09:30:52;0.90;99.90
40952;DHT22;26682;51.660;19.338;2023-01-26T09:32:40;0.80;99.90
40952;DHT22;26682;51.660;19.338;2023-01-26T09:34:27;0.90;99.90
40952;DHT22;26682;51.660;19.338;2023-01-26T09:36:15;0.90;99.90
40952;DHT22;26682;51.660;19.338;2023-01-26T09:38:02;0.90;99.90
40952;DHT22;26682;51.660;19.338;2023-01-26T09:39:50;0.90;99.90
40952;DHT22;26682;51.660;19.338;2023-01-26T09:43:36;1.00;99.90
40952;DHT22;26682;51.660;19.338;2023-01-26T09:45:34;1.00;99.90
40952;DHT22;26682;51.660;19.338;2023-01-26T09:47:30;1.00;99.90
40952;DHT22;26682;51.660;19.338;2023-01-26T09:53:26;1.10;72.70
40952;DHT22;26682;51.660;19.338;2023-01-26T09:55:18;1.10;44.20
40952;DHT22;26682;51.660;19.338;2023-01-26T09:57:16;1.10;51.50
40952;DHT22;26682;51.660;19.338;2023-01-26T10:01:02;1.10;10.20
40952;DHT22;26682;51.660;19.338;2023-01-26T10:04:46;1.00;1.00
40952;DHT22;26682;51.660;19.338;2023-01-26T10:06:37;1.00;1.00
40952;DHT22;26682;51.660;19.338;2023-01-26T10:08:43;1.00;1.00
40952;DHT22;26682;51.660;19.338;2023-01-26T10:10:35;1.10;1.00
40952;DHT22;26682;51.660;19.338;2023-01-26T10:12:31;1.20;1.00
40952;DHT22;26682;51.660;19.338;2023-01-26T10:14:35;1.20;1.00
40952;DHT22;26682;51.660;19.338;2023-01-26T10:16:26;1.20;1.00
40952;DHT22;26682;51.660;19.338;2023-01-26T10:18:23;1.20;1.00
40952;DHT22;26682;51.660;19.338;2023-01-26T10:20:32;1.20;1.00
40952;DHT22;26682;51.660;19.338;2023-01-26T10:22:24;1.20;1.00
40952;DHT22;26682;51.660;19.338;2023-01-26T10:24:20;1.20;1.00
40952;DHT22;26682;51.660;19.338;2023-01-26T10:26:21;1.20;1.00
40952;DHT22;26682;51.660;19.338;2023-01-26T10:28:22;1.20;1.00
40952;DHT22;26682;51.660;19.338;2023-01-26T10:30:14;1.10;99.90
40952;DHT22;26682;51.660;19.338;2023-01-26T10:32:02;1.10;1.00
40952;DHT22;26682;51.660;19.338;2023-01-26T10:35:42;1.20;1.00
40952;DHT22;26682;51.660;19.338;2023-01-26T10:37:30;1.20;1.00
40952;DHT22;26682;51.660;19.338;2023-01-26T10:39:17;1.30;1.00
40952;DHT22;26682;51.660;19.338;2023-01-26T10:43:16;1.30;99.90
40952;DHT22;26682;51.660;19.338;2023-01-26T10:47:18;1.30;99.90
40952;DHT22;26682;51.660;19.338;2023-01-26T10:51:13;1.40;99.90
40952;DHT22;26682;51.660;19.338;2023-01-26T10:53:03;1.40;99.90
40952;DHT22;26682;51.660;19.338;2023-01-26T10:55:11;1.40;99.90
40952;DHT22;26682;51.660;19.338;2023-01-26T10:57:13;1.30;99.90
40952;DHT22;26682;51.660;19.338;2023-01-26T10:59:07;1.40;99.90
40952;DHT22;26682;51.660;19.338;2023-01-26T11:00:55;1.40;99.90
40952;DHT22;26682;51.660;19.338;2023-01-26T11:02:49;1.40;99.90
40952;DHT22;26682;51.660;19.338;2023-01-26T11:04:38;1.40;99.90
40952;DHT22;26682;51.660;19.338;2023-01-26T11:06:28;1.40;99.90
40952;DHT22;26682;51.660;19.338;2023-01-26T11:08:36;1.40;99.90
40952;DHT22;26682;51.660;19.338;2023-01-26T11:10:33;1.40;99.90
40952;DHT22;26682;51.660;19.338;2023-01-26T11:12:24;1.40;99.90
40952;DHT22;26682;51.660;19.338;2023-01-26T11:14:16;1.50;99.90
40952;DHT22;26682;51.660;19.338;2023-01-26T11:16:19;1.40;99.90
40952;DHT22;26682;51.660;19.338;2023-01-26T11:22:25;1.40;99.90
40952;DHT22;26682;51.660;19.338;2023-01-26T11:24:24;1.40;84.60
40952;DHT22;26682;51.660;19.338;2023-01-26T11:39:07;1.40;18.10
40952;DHT22;26682;51.660;19.338;2023-01-26T11:41:14;1.40;1.00
40952;DHT22;26682;51.660;19.338;2023-01-26T11:45:35;1.40;1.00
40952;DHT22;26682;51.660;19.338;2023-01-26T11:52:07;1.30;1.00
40952;DHT22;26682;51.660;19.338;2023-01-26T12:00:22;1.50;99.90
40952;DHT22;26682;51.660;19.338;2023-01-26T12:02:37;1.50;1.00
40952;DHT22;26682;51.660;19.338;2023-01-26T12:04:32;1.60;1.00
40952;DHT22;26682;51.660;19.338;2023-01-26T12:06:30;1.60;1.00
40952;DHT22;26682;51.660;19.338;2023-01-26T12:08:50;1.60;1.00
40952;DHT22;26682;51.660;19.338;2023-01-26T12:12:41;1.70;1.00
40952;DHT22;26682;51.660;19.338;2023-01-26T12:21:12;1.50;99.90
40952;DHT22;26682;51.660;19.338;2023-01-26T12:23:03;1.50;99.90
40952;DHT22;26682;51.660;19.338;2023-01-26T12:25:02;1.50;99.90
40952;DHT22;26682;51.660;19.338;2023-01-26T12:27:28;1.50;99.90
40952;DHT22;26682;51.660;19.338;2023-01-26T12:29:34;1.50;99.90
40952;DHT22;26682;51.660;19.338;2023-01-26T12:31:40;1.50;99.90
40952;DHT22;26682;51.660;19.338;2023-01-26T12:33:32;1.60;99.90
40952;DHT22;26682;51.660;19.338;2023-01-26T12:37:46;1.50;99.90
40952;DHT22;26682;51.660;19.338;2023-01-26T12:39:49;1.50;99.90
40952;DHT22;26682;51.660;19.338;2023-01-26T12:44:34;1.50;99.90
40952;DHT22;26682;51.660;19.338;2023-01-26T12:46:29;1.60;99.90
40952;DHT22;26682;51.660;19.338;2023-01-26T12:48:33;1.60;99.90
40952;DHT22;26682;51.660;19.338;2023-01-26T12:50:32;1.60;99.90
40952;DHT22;26682;51.660;19.338;2023-01-26T12:54:41;1.50;99.90
40952;DHT22;26682;51.660;19.338;2023-01-26T12:56:35;1.40;99.90
40952;DHT22;26682;51.660;19.338;2023-01-26T12:58:32;1.40;99.90
40952;DHT22;26682;51.660;19.338;2023-01-26T13:00:24;1.40;99.90
40952;DHT22;26682;51.660;19.338;2023-01-26T13:02:33;1.40;99.90